sensor_id;sensor_type;location;lat;lon;timestamp;pressure;altitude;pressure_sealevel;temperature;humidity
23619;BME280;18207;32.078;34.818;2023-04-30T00:02:29;100683.41;;;25.49;34.29
23619;BME280;18207;32.078;34.818;2023-04-30T00:05:00;100680.59;;;25.49;33.97
23619;BME280;18207;32.078;34.818;2023-04-30T00:07:30;100693.81;;;25.48;34.36
23619;BME280;18207;32.078;34.818;2023-04-30T00:10:00;100682.56;;;25.48;34.11
23619;BME280;18207;32.078;34.818;2023-04-30T00:12:32;100685.38;;;25.48;34.51
23619;BME280;18207;32.078;34.818;2023-04-30T00:15:05;100679.75;;;25.48;34.34
23619;BME280;18207;32.078;34.818;2023-04-30T00:17:35;100679.75;;;25.48;34.13
23619;BME280;18207;32.078;34.818;2023-04-30T00:20:07;100675.75;;;25.49;34.30
23619;BME280;18207;32.078;34.818;2023-04-30T00:22:37;100679.75;;;25.48;34.31
23619;BME280;18207;32.078;34.818;2023-04-30T00:25:08;100680.59;;;25.49;34.45
23619;BME280;18207;32.078;34.818;2023-04-30T00:27:38;100677.75;;;25.49;34.45
23619;BME280;18207;32.078;34.818;2023-04-30T00:30:11;100672.13;;;25.49;34.44
23619;BME280;18207;32.078;34.818;2023-04-30T00:32:41;100676.94;;;25.48;34.19
23619;BME280;18207;32.078;34.818;2023-04-30T00:35:12;100670.13;;;25.49;34.62
23619;BME280;18207;32.078;34.818;2023-04-30T00:37:43;100671.31;;;25.48;34.71
23619;BME280;18207;32.078;34.818;2023-04-30T00:40:13;100680.59;;;25.49;34.48
23619;BME280;18207;32.078;34.818;2023-04-30T00:42:43;100676.13;;;25.48;34.27
23619;BME280;18207;32.078;34.818;2023-04-30T00:45:17;100678.13;;;25.47;34.41
23619;BME280;18207;32.078;34.818;2023-04-30T00:47:49;100680.13;;;25.47;34.38
23619;BME280;18207;32.078;34.818;2023-04-30T00:50:19;100678.50;;;25.46;34.65
23619;BME280;18207;32.078;34.818;2023-04-30T00:52:50;100685.31;;;25.45;34.26
23619;BME280;18207;32.078;34.818;2023-04-30T00:55:20;100682.50;;;25.45;34.55
23619;BME280;18207;32.078;34.818;2023-04-30T00:57:51;100677.25;;;25.43;34.50
23619;BME280;18207;32.078;34.818;2023-04-30T01:00:26;100689.31;;;25.44;34.57
23619;BME280;18207;32.078;34.818;2023-04-30T01:02:56;100688.50;;;25.43;34.55
23619;BME280;18207;32.078;34.818;2023-04-30T01:05:27;100679.22;;;25.43;34.74
23619;BME280;18207;32.078;34.818;2023-04-30T01:07:57;100689.69;;;25.42;34.61
23619;BME280;18207;32.078;34.818;2023-04-30T01:10:37;100677.59;;;25.42;34.31
23619;BME280;18207;32.078;34.818;2023-04-30T01:13:16;100691.66;;;25.42;34.39
23619;BME280;18207;32.078;34.818;2023-04-30T01:16:01;100691.66;;;25.42;34.48
23619;BME280;18207;32.078;34.818;2023-04-30T01:18:42;100691.66;;;25.42;34.73
23619;BME280;18207;32.078;34.818;2023-04-30T01:21:17;100693.69;;;25.41;34.75
23619;BME280;18207;32.078;34.818;2023-04-30T01:24:22;100680.41;;;25.42;34.66
23619;BME280;18207;32.078;34.818;2023-04-30T01:27:06;100683.22;;;25.42;34.73
23619;BME280;18207;32.078;34.818;2023-04-30T01:29:44;100692.50;;;25.42;34.78
23619;BME280;18207;32.078;34.818;2023-04-30T01:32:15;100691.66;;;25.42;34.64
23619;BME280;18207;32.078;34.818;2023-04-30T01:34:44;100685.25;;;25.41;34.74
23619;BME280;18207;32.078;34.818;2023-04-30T01:37:23;100687.22;;;25.41;34.54
23619;BME280;18207;32.078;34.818;2023-04-30T01:40:16;100684.78;;;25.39;34.77
23619;BME280;18207;32.078;34.818;2023-04-30T01:43:09;100692.78;;;25.37;34.78
23619;BME280;18207;32.078;34.818;2023-04-30T01:45:56;100687.53;;;25.36;34.65
23619;BME280;18207;32.078;34.818;2023-04-30T01:48:41;100690.72;;;25.34;34.55
23619;BME280;18207;32.078;34.818;2023-04-30T01:51:20;100680.66;;;25.33;34.80
23619;BME280;18207;32.078;34.818;2023-04-30T01:54:00;100681.44;;;25.34;34.61
23619;BME280;18207;32.078;34.818;2023-04-30T01:56:39;100687.91;;;25.34;34.70
23619;BME280;18207;32.078;34.818;2023-04-30T01:59:14;100683.91;;;25.35;34.79
23619;BME280;18207;32.078;34.818;2023-04-30T02:01:47;100679.88;;;25.36;34.77
23619;BME280;18207;32.078;34.818;2023-04-30T02:04:17;100681.53;;;25.37;34.81
23619;BME280;18207;32.078;34.818;2023-04-30T02:06:48;100687.97;;;25.38;34.74
23619;BME280;18207;32.078;34.818;2023-04-30T02:09:17;100689.63;;;25.39;34.85
23619;BME280;18207;32.078;34.818;2023-04-30T02:11:47;100686.81;;;25.39;34.62
23619;BME280;18207;32.078;34.818;2023-04-30T02:14:18;100693.59;;;25.38;34.83
23619;BME280;18207;32.078;34.818;2023-04-30T02:16:50;100691.59;;;25.38;35.00
23619;BME280;18207;32.078;34.818;2023-04-30T02:19:21;100699.59;;;25.36;34.99
23619;BME280;18207;32.078;34.818;2023-04-30T02:21:51;100695.97;;;25.36;34.96
23619;BME280;18207;32.078;34.818;2023-04-30T02:24:21;100697.16;;;25.35;35.14
23619;BME280;18207;32.078;34.818;2023-04-30T02:26:51;100691.53;;;25.35;34.82
23619;BME280;18207;32.078;34.818;2023-04-30T02:29:22;100700.78;;;25.35;34.96
23619;BME280;18207;32.078;34.818;2023-04-30T02:31:55;100704.41;;;25.36;35.02
23619;BME280;18207;32.078;34.818;2023-04-30T02:34:25;100701.16;;;25.34;34.99
23619;BME280;18207;32.078;34.818;2023-04-30T02:36:56;100707.94;;;25.33;34.93
23619;BME280;18207;32.078;34.818;2023-04-30T02:39:27;100709.59;;;25.34;34.97
23619;BME280;18207;32.078;34.818;2023-04-30T02:41:57;100714.03;;;25.35;35.11
23619;BME280;18207;32.078;34.818;2023-04-30T02:44:28;100705.59;;;25.35;34.83
23619;BME280;18207;32.078;34.818;2023-04-30T02:47:01;100710.84;;;25.36;35.37
23619;BME280;18207;32.078;34.818;2023-04-30T02:49:31;100708.84;;;25.37;35.15
23619;BME280;18207;32.078;34.818;2023-04-30T02:52:02;100716.13;;;25.38;34.98
23619;BME280;18207;32.078;34.818;2023-04-30T02:54:33;100712.13;;;25.39;35.16
23619;BME280;18207;32.078;34.818;2023-04-30T02:57:03;100710.94;;;25.40;35.40
23619;BME280;18207;32.078;34.818;2023-04-30T02:59:33;100717.00;;;25.42;35.51
23619;BME280;18207;32.078;34.818;2023-04-30T03:02:06;100713.00;;;25.43;35.24
23619;BME280;18207;32.078;34.818;2023-04-30T03:04:36;100708.19;;;25.43;35.46
23619;BME280;18207;32.078;34.818;2023-04-30T03:07:07;100715.81;;;25.43;35.27
23619;BME280;18207;32.078;34.818;2023-04-30T03:09:38;100718.63;;;25.43;35.45
23619;BME280;18207;32.078;34.818;2023-04-30T03:12:08;100720.63;;;25.42;35.38
23619;BME280;18207;32.078;34.818;2023-04-30T03:14:38;100720.97;;;25.41;35.51
23619;BME280;18207;32.078;34.818;2023-04-30T03:17:10;100725.00;;;25.40;35.38
23619;BME280;18207;32.078;34.818;2023-04-30T03:19:40;100725.34;;;25.38;35.53
23619;BME280;18207;32.078;34.818;2023-04-30T03:22:11;100726.53;;;25.37;35.45
23619;BME280;18207;32.078;34.818;2023-04-30T03:24:41;100728.56;;;25.37;35.49
23619;BME280;18207;32.078;34.818;2023-04-30T03:27:11;100741.00;;;25.36;35.42
23619;BME280;18207;32.078;34.818;2023-04-30T03:29:41;100738.97;;;25.36;35.40
23619;BME280;18207;32.078;34.818;2023-04-30T03:32:14;100738.97;;;25.36;35.67
23619;BME280;18207;32.078;34.818;2023-04-30T03:34:44;100744.97;;;25.35;35.34
23619;BME280;18207;32.078;34.818;2023-04-30T03:37:14;100747.00;;;25.34;35.40
23619;BME280;18207;32.078;34.818;2023-04-30T03:39:44;100747.34;;;25.33;35.43
23619;BME280;18207;32.078;34.818;2023-04-30T03:42:14;100752.97;;;25.33;35.69
23619;BME280;18207;32.078;34.818;2023-04-30T03:44:44;100754.16;;;25.32;35.46
23619;BME280;18207;32.078;34.818;2023-04-30T03:47:16;100762.97;;;25.30;35.35
23619;BME280;18207;32.078;34.818;2023-04-30T03:49:46;100761.72;;;25.28;35.52
23619;BME280;18207;32.078;34.818;2023-04-30T03:52:22;100760.88;;;25.27;35.53
23619;BME280;18207;32.078;34.818;2023-04-30T03:54:53;100766.09;;;25.25;35.73
23619;BME280;18207;32.078;34.818;2023-04-30T03:57:23;100762.44;;;25.25;35.54
23619;BME280;18207;32.078;34.818;2023-04-30T03:59:53;100760.81;;;25.24;35.52
23619;BME280;18207;32.078;34.818;2023-04-30T04:02:26;100767.25;;;25.24;35.25
23619;BME280;18207;32.078;34.818;2023-04-30T04:04:56;100765.63;;;25.23;35.46
23619;BME280;18207;32.078;34.818;2023-04-30T04:07:26;100766.44;;;25.24;35.48
23619;BME280;18207;32.078;34.818;2023-04-30T04:09:56;100770.06;;;25.24;35.53
23619;BME280;18207;32.078;34.818;2023-04-30T04:12:26;100780.16;;;25.25;35.62
23619;BME280;18207;32.078;34.818;2023-04-30T04:14:57;100776.13;;;25.26;35.59
23619;BME280;18207;32.078;34.818;2023-04-30T04:17:28;100782.59;;;25.27;35.55
23619;BME280;18207;32.078;34.818;2023-04-30T04:19:59;100778.13;;;25.26;35.50
23619;BME280;18207;32.078;34.818;2023-04-30T04:22:29;100785.41;;;25.27;35.56
23619;BME280;18207;32.078;34.818;2023-04-30T04:24:59;100783.75;;;25.26;35.35
23619;BME280;18207;32.078;34.818;2023-04-30T04:27:30;100780.94;;;25.26;35.09
23619;BME280;18207;32.078;34.818;2023-04-30T04:30:03;100795.00;;;25.26;35.35
23619;BME280;18207;32.078;34.818;2023-04-30T04:32:35;100802.66;;;25.25;35.56
23619;BME280;18207;32.078;34.818;2023-04-30T04:35:09;100795.00;;;25.26;35.02
23619;BME280;18207;32.078;34.818;2023-04-30T04:37:39;100801.81;;;25.25;35.50
23619;BME280;18207;32.078;34.818;2023-04-30T04:40:10;100807.06;;;25.26;35.44
23619;BME280;18207;32.078;34.818;2023-04-30T04:42:40;100798.63;;;25.26;35.47
23619;BME280;18207;32.078;34.818;2023-04-30T04:45:11;100803.44;;;25.26;35.86
23619;BME280;18207;32.078;34.818;2023-04-30T04:47:45;100806.72;;;25.28;35.46
23619;BME280;18207;32.078;34.818;2023-04-30T04:50:15;100807.91;;;25.27;35.17
23619;BME280;18207;32.078;34.818;2023-04-30T04:52:45;100815.50;;;25.26;35.54
23619;BME280;18207;32.078;34.818;2023-04-30T04:55:16;100811.50;;;25.27;35.50
23619;BME280;18207;32.078;34.818;2023-04-30T04:57:46;100819.94;;;25.27;35.26
23619;BME280;18207;32.078;34.818;2023-04-30T05:00:16;100813.91;;;25.25;35.72
23619;BME280;18207;32.078;34.818;2023-04-30T05:02:48;100820.34;;;25.26;35.45
23619;BME280;18207;32.078;34.818;2023-04-30T05:05:18;100820.72;;;25.24;35.29
23619;BME280;18207;32.078;34.818;2023-04-30T05:07:48;100826.34;;;25.24;35.56
23619;BME280;18207;32.078;34.818;2023-04-30T05:10:19;100827.13;;;25.25;35.59
23619;BME280;18207;32.078;34.818;2023-04-30T05:12:49;100824.31;;;25.25;35.39
23619;BME280;18207;32.078;34.818;2023-04-30T05:15:20;100825.97;;;25.26;35.29
23619;BME280;18207;32.078;34.818;2023-04-30T05:17:52;100823.59;;;25.28;35.85
23619;BME280;18207;32.078;34.818;2023-04-30T05:20:21;100832.50;;;25.30;35.62
23619;BME280;18207;32.078;34.818;2023-04-30T05:22:52;100844.19;;;25.32;35.65
23619;BME280;18207;32.078;34.818;2023-04-30T05:25:22;100848.28;;;25.34;35.73
23619;BME280;18207;32.078;34.818;2023-04-30T05:27:52;100841.47;;;25.35;35.77
23619;BME280;18207;32.078;34.818;2023-04-30T05:30:23;100837.91;;;25.38;35.79
23619;BME280;18207;32.078;34.818;2023-04-30T05:32:56;100846.00;;;25.40;35.72
23619;BME280;18207;32.078;34.818;2023-04-30T05:35:26;100851.25;;;25.41;35.46
23619;BME280;18207;32.078;34.818;2023-04-30T05:37:56;100849.25;;;25.42;35.63
23619;BME280;18207;32.078;34.818;2023-04-30T05:40:26;100850.88;;;25.43;35.55
23619;BME280;18207;32.078;34.818;2023-04-30T05:42:56;100846.88;;;25.44;35.77
23619;BME280;18207;32.078;34.818;2023-04-30T05:45:26;100846.53;;;25.45;35.71
23619;BME280;18207;32.078;34.818;2023-04-30T05:47:58;100850.63;;;25.48;35.77
23619;BME280;18207;32.078;34.818;2023-04-30T05:50:29;100850.25;;;25.49;35.68
23619;BME280;18207;32.078;34.818;2023-04-30T05:52:59;100850.69;;;25.51;35.61
23619;BME280;18207;32.078;34.818;2023-04-30T05:55:30;100857.59;;;25.54;35.63
23619;BME280;18207;32.078;34.818;2023-04-30T05:58:00;100858.03;;;25.56;35.78
23619;BME280;18207;32.078;34.818;2023-04-30T06:00:31;100857.66;;;25.57;35.87
23619;BME280;18207;32.078;34.818;2023-04-30T06:03:03;100857.31;;;25.59;35.86
23619;BME280;18207;32.078;34.818;2023-04-30T06:05:34;100861.38;;;25.61;35.98
23619;BME280;18207;32.078;34.818;2023-04-30T06:08:04;100863.91;;;25.66;35.74
23619;BME280;18207;32.078;34.818;2023-04-30T06:10:35;100870.44;;;25.70;36.11
23619;BME280;18207;32.078;34.818;2023-04-30T06:13:06;100870.53;;;25.74;35.94
23619;BME280;18207;32.078;34.818;2023-04-30T06:15:35;100875.06;;;25.78;35.96
23619;BME280;18207;32.078;34.818;2023-04-30T06:18:07;100876.34;;;25.81;35.93
23619;BME280;18207;32.078;34.818;2023-04-30T06:20:39;100882.41;;;25.83;35.81
23619;BME280;18207;32.078;34.818;2023-04-30T06:23:09;100882.06;;;25.84;35.82
23619;BME280;18207;32.078;34.818;2023-04-30T06:25:39;100887.31;;;25.86;35.79
23619;BME280;18207;32.078;34.818;2023-04-30T06:28:10;100885.75;;;25.88;35.99
23619;BME280;18207;32.078;34.818;2023-04-30T06:30:40;100897.47;;;25.90;35.90
23619;BME280;18207;32.078;34.818;2023-04-30T06:33:13;100894.75;;;25.94;35.71
23619;BME280;18207;32.078;34.818;2023-04-30T06:35:42;100887.56;;;25.96;35.81
23619;BME280;18207;32.078;34.818;2023-04-30T06:38:13;100894.09;;;26.00;36.00
23619;BME280;18207;32.078;34.818;2023-04-30T06:40:45;100902.22;;;26.05;35.92
23619;BME280;18207;32.078;34.818;2023-04-30T06:43:16;100907.22;;;26.11;36.31
23619;BME280;18207;32.078;34.818;2023-04-30T06:45:46;100913.38;;;26.17;36.08
23619;BME280;18207;32.078;34.818;2023-04-30T06:48:18;100906.28;;;26.23;35.95
23619;BME280;18207;32.078;34.818;2023-04-30T06:50:48;100909.16;;;26.26;35.92
23619;BME280;18207;32.078;34.818;2023-04-30T06:53:19;100903.22;;;26.31;35.87
23619;BME280;18207;32.078;34.818;2023-04-30T06:55:50;100910.56;;;26.36;35.92
23619;BME280;18207;32.078;34.818;2023-04-30T06:58:20;100914.31;;;26.40;35.90
23619;BME280;18207;32.078;34.818;2023-04-30T07:00:51;100915.19;;;26.44;35.87
23619;BME280;18207;32.078;34.818;2023-04-30T07:03:23;100924.53;;;26.48;35.85
23619;BME280;18207;32.078;34.818;2023-04-30T07:05:54;100917.34;;;26.50;35.67
23619;BME280;18207;32.078;34.818;2023-04-30T07:08:24;100922.25;;;26.53;35.71
23619;BME280;18207;32.078;34.818;2023-04-30T07:10:55;100938.44;;;26.56;35.79
23619;BME280;18207;32.078;34.818;2023-04-30T07:13:25;100942.13;;;26.60;35.87
23619;BME280;18207;32.078;34.818;2023-04-30T07:15:54;100939.81;;;26.66;35.56
23619;BME280;18207;32.078;34.818;2023-04-30T07:18:27;100931.88;;;26.71;35.81
23619;BME280;18207;32.078;34.818;2023-04-30T07:20:57;100936.03;;;26.77;35.83
23619;BME280;18207;32.078;34.818;2023-04-30T07:23:28;100928.91;;;26.83;35.73
23619;BME280;18207;32.078;34.818;2023-04-30T07:25:59;100935.84;;;26.89;35.52
23619;BME280;18207;32.078;34.818;2023-04-30T07:28:29;100933.94;;;26.93;35.55
23619;BME280;18207;32.078;34.818;2023-04-30T07:31:00;100927.16;;;26.97;35.60
23619;BME280;18207;32.078;34.818;2023-04-30T07:33:31;100939.69;;;27.00;35.66
23619;BME280;18207;32.078;34.818;2023-04-30T07:36:01;100939.78;;;27.03;35.60
23619;BME280;18207;32.078;34.818;2023-04-30T07:38:32;100939.09;;;27.10;35.50
23619;BME280;18207;32.078;34.818;2023-04-30T07:41:06;100942.38;;;27.12;35.72
23619;BME280;18207;32.078;34.818;2023-04-30T07:43:37;100951.75;;;27.16;35.50
23619;BME280;18207;32.078;34.818;2023-04-30T07:46:08;100953.78;;;27.19;35.47
23619;BME280;18207;32.078;34.818;2023-04-30T07:48:40;100957.88;;;27.21;35.46
23619;BME280;18207;32.078;34.818;2023-04-30T07:51:09;100952.66;;;27.23;35.36
23619;BME280;18207;32.078;34.818;2023-04-30T07:53:40;100955.94;;;27.25;35.40
23619;BME280;18207;32.078;34.818;2023-04-30T07:56:10;100952.38;;;27.28;35.26
23619;BME280;18207;32.078;34.818;2023-04-30T07:58:40;100949.97;;;27.30;35.37
23619;BME280;18207;32.078;34.818;2023-04-30T08:01:10;100951.63;;;27.31;35.34
23619;BME280;18207;32.078;34.818;2023-04-30T08:03:42;100959.31;;;27.34;35.34
23619;BME280;18207;32.078;34.818;2023-04-30T08:06:13;100950.84;;;27.34;35.52
23619;BME280;18207;32.078;34.818;2023-04-30T08:08:43;100952.09;;;27.37;35.37
23619;BME280;18207;32.078;34.818;2023-04-30T08:11:15;100943.72;;;27.40;35.33
23619;BME280;18207;32.078;34.818;2023-04-30T08:13:45;100952.69;;;27.46;35.46
23619;BME280;18207;32.078;34.818;2023-04-30T08:16:16;100944.25;;;27.49;35.41
23619;BME280;18207;32.078;34.818;2023-04-30T08:18:48;100947.94;;;27.53;35.24
23619;BME280;18207;32.078;34.818;2023-04-30T08:21:19;100951.22;;;27.55;35.58
23619;BME280;18207;32.078;34.818;2023-04-30T08:23:49;100953.28;;;27.58;35.43
23619;BME280;18207;32.078;34.818;2023-04-30T08:26:20;100945.25;;;27.60;35.18
23619;BME280;18207;32.078;34.818;2023-04-30T08:28:50;100960.66;;;27.63;35.06
23619;BME280;18207;32.078;34.818;2023-04-30T08:31:21;100953.81;;;27.64;35.31
23619;BME280;18207;32.078;34.818;2023-04-30T08:33:52;100957.44;;;27.64;35.30
23619;BME280;18207;32.078;34.818;2023-04-30T08:36:22;100956.25;;;27.65;35.33
23619;BME280;18207;32.078;34.818;2023-04-30T08:38:53;100943.38;;;27.68;35.19
23619;BME280;18207;32.078;34.818;2023-04-30T08:41:26;100946.25;;;27.71;35.21
23619;BME280;18207;32.078;34.818;2023-04-30T08:44:02;100940.25;;;27.73;35.35
23619;BME280;18207;32.078;34.818;2023-04-30T08:46:37;100944.75;;;27.77;35.42
23619;BME280;18207;32.078;34.818;2023-04-30T08:49:10;100939.16;;;27.80;35.36
23619;BME280;18207;32.078;34.818;2023-04-30T08:51:40;100951.34;;;27.84;35.20
23619;BME280;18207;32.078;34.818;2023-04-30T08:54:13;100950.19;;;27.89;35.19
23619;BME280;18207;32.078;34.818;2023-04-30T08:56:44;100943.41;;;27.93;35.37
23619;BME280;18207;32.078;34.818;2023-04-30T08:59:15;100940.63;;;27.97;35.05
23619;BME280;18207;32.078;34.818;2023-04-30T09:01:45;100946.31;;;28.00;35.04
23619;BME280;18207;32.078;34.818;2023-04-30T09:04:20;100944.38;;;28.04;35.27
23619;BME280;18207;32.078;34.818;2023-04-30T09:06:53;100941.59;;;28.08;35.14
23619;BME280;18207;32.078;34.818;2023-04-30T09:09:38;100944.84;;;28.10;35.13
23619;BME280;18207;32.078;34.818;2023-04-30T09:12:14;100935.59;;;28.13;35.08
23619;BME280;18207;32.078;34.818;2023-04-30T09:15:00;100941.31;;;28.16;34.78
23619;BME280;18207;32.078;34.818;2023-04-30T09:17:32;100950.63;;;28.17;34.85
23619;BME280;18207;32.078;34.818;2023-04-30T09:20:10;100942.97;;;28.21;34.86
23619;BME280;18207;32.078;34.818;2023-04-30T09:22:41;100939.44;;;28.24;34.66
23619;BME280;18207;32.078;34.818;2023-04-30T09:25:12;100936.22;;;28.25;34.57
23619;BME280;18207;32.078;34.818;2023-04-30T09:27:44;100935.84;;;28.27;34.80
23619;BME280;18207;32.078;34.818;2023-04-30T09:30:30;100938.28;;;28.28;34.79
23619;BME280;18207;32.078;34.818;2023-04-30T09:33:02;100938.72;;;28.30;34.79
23619;BME280;18207;32.078;34.818;2023-04-30T09:35:37;100946.84;;;28.35;34.74
23619;BME280;18207;32.078;34.818;2023-04-30T09:38:25;100942.81;;;28.36;34.60
23619;BME280;18207;32.078;34.818;2023-04-30T09:40:59;100938.00;;;28.37;34.57
23619;BME280;18207;32.078;34.818;2023-04-30T09:43:30;100932.34;;;28.37;34.61
23619;BME280;18207;32.078;34.818;2023-04-30T09:46:02;100939.63;;;28.38;34.72
23619;BME280;18207;32.078;34.818;2023-04-30T09:48:32;100935.22;;;28.40;34.38
23619;BME280;18207;32.078;34.818;2023-04-30T09:51:07;100946.97;;;28.42;34.45
23619;BME280;18207;32.078;34.818;2023-04-30T09:53:39;100945.75;;;28.43;34.52
23619;BME280;18207;32.078;34.818;2023-04-30T09:56:13;100937.28;;;28.43;34.29
23619;BME280;18207;32.078;34.818;2023-04-30T09:58:50;100946.16;;;28.45;34.33
23619;BME280;18207;32.078;34.818;2023-04-30T10:01:25;100939.31;;;28.46;34.40
23619;BME280;18207;32.078;34.818;2023-04-30T10:03:57;100937.31;;;28.47;34.50
23619;BME280;18207;32.078;34.818;2023-04-30T10:06:29;100938.56;;;28.49;34.06
23619;BME280;18207;32.078;34.818;2023-04-30T10:09:05;100937.38;;;28.50;34.38
23619;BME280;18207;32.078;34.818;2023-04-30T10:11:36;100954.78;;;28.52;34.51
23619;BME280;18207;32.078;34.818;2023-04-30T10:14:11;100937.41;;;28.54;34.29
23619;BME280;18207;32.078;34.818;2023-04-30T10:16:48;100946.69;;;28.54;33.89
23619;BME280;18207;32.078;34.818;2023-04-30T10:19:25;100948.31;;;28.55;34.39
23619;BME280;18207;32.078;34.818;2023-04-30T10:22:01;100951.97;;;28.56;34.01
23619;BME280;18207;32.078;34.818;2023-04-30T10:24:33;100947.97;;;28.57;34.10
23619;BME280;18207;32.078;34.818;2023-04-30T10:27:04;100949.59;;;28.58;33.64
23619;BME280;18207;32.078;34.818;2023-04-30T10:29:35;100951.22;;;28.59;33.99
23619;BME280;18207;32.078;34.818;2023-04-30T10:32:06;100953.66;;;28.60;34.08
23619;BME280;18207;32.078;34.818;2023-04-30T10:34:49;100959.31;;;28.60;33.82
23619;BME280;18207;32.078;34.818;2023-04-30T10:37:33;100959.72;;;28.59;33.81
23619;BME280;18207;32.078;34.818;2023-04-30T10:40:06;100959.28;;;28.57;33.41
23619;BME280;18207;32.078;34.818;2023-04-30T10:42:37;100958.84;;;28.55;33.71
23619;BME280;18207;32.078;34.818;2023-04-30T10:45:15;100965.69;;;28.54;34.01
23619;BME280;18207;32.078;34.818;2023-04-30T10:47:47;100956.41;;;28.53;33.80
23619;BME280;18207;32.078;34.818;2023-04-30T10:50:22;100952.75;;;28.53;33.80
23619;BME280;18207;32.078;34.818;2023-04-30T10:53:04;100962.84;;;28.54;33.83
23619;BME280;18207;32.078;34.818;2023-04-30T10:55:45;100966.09;;;28.52;33.47
23619;BME280;18207;32.078;34.818;2023-04-30T10:58:25;100951.13;;;28.52;33.72
23619;BME280;18207;32.078;34.818;2023-04-30T11:01:02;100958.41;;;28.53;33.87
23619;BME280;18207;32.078;34.818;2023-04-30T11:03:34;100962.44;;;28.52;33.78
23619;BME280;18207;32.078;34.818;2023-04-30T11:06:14;100964.00;;;28.49;33.66
23619;BME280;18207;32.078;34.818;2023-04-30T11:08:49;100960.75;;;28.47;33.47
23619;BME280;18207;32.078;34.818;2023-04-30T11:11:19;100960.31;;;28.45;33.57
23619;BME280;18207;32.078;34.818;2023-04-30T11:14:00;100968.78;;;28.45;33.63
23619;BME280;18207;32.078;34.818;2023-04-30T11:16:32;100963.53;;;28.44;33.98
23619;BME280;18207;32.078;34.818;2023-04-30T11:19:06;100963.13;;;28.45;33.60
23619;BME280;18207;32.078;34.818;2023-04-30T11:21:41;100953.84;;;28.45;33.83
23619;BME280;18207;32.078;34.818;2023-04-30T11:24:13;100960.31;;;28.45;33.66
23619;BME280;18207;32.078;34.818;2023-04-30T11:27:04;100946.16;;;28.45;33.70
23619;BME280;18207;32.078;34.818;2023-04-30T11:29:36;100955.50;;;28.46;33.71
23619;BME280;18207;32.078;34.818;2023-04-30T11:32:07;100949.84;;;28.46;33.98
23619;BME280;18207;32.078;34.818;2023-04-30T11:34:37;100947.44;;;28.48;33.39
23619;BME280;18207;32.078;34.818;2023-04-30T11:37:11;100951.50;;;28.50;33.45
23619;BME280;18207;32.078;34.818;2023-04-30T11:39:44;100944.22;;;28.49;33.48
23619;BME280;18207;32.078;34.818;2023-04-30T11:42:18;100955.97;;;28.51;33.59
23619;BME280;18207;32.078;34.818;2023-04-30T11:44:48;100945.84;;;28.50;33.54
23619;BME280;18207;32.078;34.818;2023-04-30T11:47:18;100945.47;;;28.52;33.55
23619;BME280;18207;32.078;34.818;2023-04-30T11:49:50;100953.13;;;28.51;33.47
23619;BME280;18207;32.078;34.818;2023-04-30T11:52:24;100954.78;;;28.52;33.76
23619;BME280;18207;32.078;34.818;2023-04-30T11:54:57;100953.13;;;28.51;33.29
23619;BME280;18207;32.078;34.818;2023-04-30T11:57:39;100951.94;;;28.52;33.55
23619;BME280;18207;32.078;34.818;2023-04-30T12:00:13;100950.31;;;28.51;33.45
23619;BME280;18207;32.078;34.818;2023-04-30T12:02:45;100952.75;;;28.53;33.22
23619;BME280;18207;32.078;34.818;2023-04-30T12:05:18;100953.56;;;28.53;33.52
23619;BME280;18207;32.078;34.818;2023-04-30T12:07:53;100958.00;;;28.54;33.36
23619;BME280;18207;32.078;34.818;2023-04-30T12:10:27;100947.53;;;28.55;33.46
23619;BME280;18207;32.078;34.818;2023-04-30T12:12:56;100945.88;;;28.54;33.47
23619;BME280;18207;32.078;34.818;2023-04-30T12:15:27;100939.03;;;28.55;33.28
23619;BME280;18207;32.078;34.818;2023-04-30T12:17:58;100934.16;;;28.52;33.50
23619;BME280;18207;32.078;34.818;2023-04-30T12:20:31;100937.81;;;28.52;33.41
23619;BME280;18207;32.078;34.818;2023-04-30T12:23:02;100938.16;;;28.51;33.44
23619;BME280;18207;32.078;34.818;2023-04-30T12:25:40;100937.81;;;28.52;33.61
23619;BME280;18207;32.078;34.818;2023-04-30T12:28:11;100946.66;;;28.51;33.81
23619;BME280;18207;32.078;34.818;2023-04-30T12:30:42;100932.50;;;28.51;33.23
23619;BME280;18207;32.078;34.818;2023-04-30T12:33:16;100934.09;;;28.48;33.46
23619;BME280;18207;32.078;34.818;2023-04-30T12:35:47;100932.47;;;28.47;33.49
23619;BME280;18207;32.078;34.818;2023-04-30T12:38:21;100929.63;;;28.47;33.40
23619;BME280;18207;32.078;34.818;2023-04-30T12:40:54;100927.66;;;28.48;33.72
23619;BME280;18207;32.078;34.818;2023-04-30T12:43:26;100934.50;;;28.47;33.42
23619;BME280;18207;32.078;34.818;2023-04-30T12:45:57;100938.13;;;28.47;33.53
23619;BME280;18207;32.078;34.818;2023-04-30T12:48:28;100939.31;;;28.46;33.54
23619;BME280;18207;32.078;34.818;2023-04-30T12:50:59;100930.47;;;28.48;33.40
23619;BME280;18207;32.078;34.818;2023-04-30T12:53:32;100922.34;;;28.46;33.51
23619;BME280;18207;32.078;34.818;2023-04-30T12:56:12;100928.84;;;28.47;33.30
23619;BME280;18207;32.078;34.818;2023-04-30T12:58:46;100918.28;;;28.44;33.39
23619;BME280;18207;32.078;34.818;2023-04-30T13:01:20;100925.97;;;28.43;33.44
23619;BME280;18207;32.078;34.818;2023-04-30T13:03:52;100927.53;;;28.41;33.37
23619;BME280;18207;32.078;34.818;2023-04-30T13:06:22;100933.59;;;28.39;33.46
23619;BME280;18207;32.078;34.818;2023-04-30T13:08:54;100926.69;;;28.37;33.35